Time;durP1;ratioP1;P1;durP2;ratioP2;P2;SDS_P1;SDS_P2;PMS_P1;PMS_P2;Temp;Humidity;BMP_temperature;BMP_pressure;BME280_temperature;BME280_humidity;BME280_pressure;Samples;Min_cycle;Max_cycle;Signal;HPM_P1;HPM_P2
2022/07/31 00:01:08;;;;;;;6.07;3.50;;;16.90;99.90;;;;;;5054630;28;20103;-27
2022/07/31 00:03:33;;;;;;;8.27;3.67;;;16.90;99.90;;;;;;5056936;28;20052;-27
2022/07/31 00:05:59;;;;;;;7.22;3.17;;;16.90;99.90;;;;;;5056714;28;20487;-27
2022/07/31 00:08:25;;;;;;;6.00;3.35;;;16.90;99.90;;;;;;5057200;28;20148;-27
2022/07/31 00:10:51;;;;;;;6.55;3.35;;;16.90;99.90;;;;;;5053997;28;20061;-27
2022/07/31 00:13:16;;;;;;;9.98;3.60;;;16.90;99.90;;;;;;5071692;28;20053;-27
2022/07/31 00:15:42;;;;;;;8.82;3.40;;;16.90;99.90;;;;;;5056544;28;20127;-27
2022/07/31 00:18:08;;;;;;;7.30;3.10;;;16.90;99.90;;;;;;5057013;28;20478;-27
2022/07/31 00:20:34;;;;;;;7.07;3.13;;;16.90;99.90;;;;;;5055352;28;20195;-27
2022/07/31 00:23:00;;;;;;;7.35;3.90;;;16.90;99.90;;;;;;5056653;28;20454;-27
2022/07/31 00:25:26;;;;;;;6.55;3.22;;;16.90;99.90;;;;;;5056299;28;20079;-27
2022/07/31 00:27:52;;;;;;;6.60;3.40;;;16.80;99.90;;;;;;5055293;28;20139;-27
2022/07/31 00:30:18;;;;;;;5.18;3.13;;;16.80;99.90;;;;;;5055146;28;20141;-27
2022/07/31 00:32:44;;;;;;;5.75;3.28;;;16.70;99.90;;;;;;5053598;28;20056;-27
2022/07/31 00:35:12;;;;;;;6.65;3.30;;;16.70;99.90;;;;;;5056145;28;20429;-27
2022/07/31 00:37:40;;;;;;;7.22;3.20;;;16.70;99.90;;;;;;5056938;28;20041;-27
2022/07/31 00:40:08;;;;;;;6.72;2.88;;;16.70;99.90;;;;;;5055534;28;20128;-29
2022/07/31 00:42:34;;;;;;;4.32;2.67;;;16.70;99.90;;;;;;5054921;28;20044;-27
2022/07/31 00:44:59;;;;;;;6.78;3.22;;;16.70;1.00;;;;;;5055568;28;20049;-27
2022/07/31 00:47:26;;;;;;;8.23;3.30;;;16.70;1.00;;;;;;5055968;28;20463;-27
2022/07/31 00:49:52;;;;;;;8.43;3.28;;;16.70;1.00;;;;;;5055895;28;20060;-27
2022/07/31 00:52:18;;;;;;;3.47;3.10;;;16.70;1.00;;;;;;5054149;28;20560;-28
2022/07/31 00:54:43;;;;;;;5.13;3.55;;;16.70;1.00;;;;;;5054431;28;20052;-28
2022/07/31 00:57:09;;;;;;;8.32;3.03;;;16.70;99.90;;;;;;5054793;28;20049;-28
2022/07/31 00:59:35;;;;;;;6.78;3.20;;;16.80;99.90;;;;;;5055400;28;20102;-27
2022/07/31 01:02:01;;;;;;;7.93;3.45;;;16.80;99.90;;;;;;5055930;28;20049;-27
2022/07/31 01:04:26;;;;;;;9.55;3.78;;;16.80;99.90;;;;;;5053254;28;20041;-27
2022/07/31 01:06:52;;;;;;;6.75;3.60;;;16.80;99.90;;;;;;5054397;28;20052;-27
2022/07/31 01:09:18;;;;;;;7.85;3.33;;;16.70;99.90;;;;;;5055404;28;20052;-28
2022/07/31 01:11:52;;;;;;;6.05;3.58;;;16.70;99.90;;;;;;5054276;28;20170;-27
2022/07/31 01:14:21;;;;;;;6.15;3.13;;;16.70;99.90;;;;;;5054488;28;20071;-27
2022/07/31 01:16:50;;;;;;;6.22;3.17;;;16.70;99.90;;;;;;5055396;28;20052;-27
2022/07/31 01:19:46;;;;;;;5.40;4.28;;;16.70;99.90;;;;;;5055332;28;20049;-27
2022/07/31 01:22:26;;;;;;;5.85;3.55;;;16.70;99.90;;;;;;5050869;28;20099;-27
2022/07/31 01:25:05;;;;;;;6.75;4.30;;;16.60;1.00;;;;;;5054577;28;20052;-27
2022/07/31 01:27:47;;;;;;;10.18;3.97;;;16.60;1.00;;;;;;5055166;28;20381;-27
2022/07/31 01:30:13;;;;;;;5.90;3.75;;;16.60;99.90;;;;;;5054509;28;20072;-28
2022/07/31 01:32:46;;;;;;;5.43;3.33;;;16.60;99.90;;;;;;5053913;28;20068;-27
2022/07/31 01:35:21;;;;;;;9.48;4.28;;;16.70;99.90;;;;;;5054072;28;20048;-28
2022/07/31 01:37:52;;;;;;;7.03;3.85;;;16.70;99.90;;;;;;5071224;28;20049;-27
2022/07/31 01:40:30;;;;;;;9.35;4.00;;;16.70;99.90;;;;;;5055516;28;20045;-28
2022/07/31 01:43:07;;;;;;;12.43;3.97;;;16.70;99.90;;;;;;5053903;28;20111;-27
2022/07/31 01:45:37;;;;;;;9.25;3.97;;;16.70;99.90;;;;;;5053771;28;20041;-27
2022/07/31 01:48:04;;;;;;;5.15;3.83;;;16.70;99.90;;;;;;5055683;28;20071;-27
2022/07/31 01:50:31;;;;;;;10.40;4.45;;;16.70;99.90;;;;;;5054687;28;20052;-28
2022/07/31 01:52:59;;;;;;;7.43;4.25;;;16.70;99.90;;;;;;5053671;28;20044;-27
2022/07/31 01:55:25;;;;;;;9.70;4.43;;;16.70;99.90;;;;;;5055180;28;20049;-27
2022/07/31 01:57:53;;;;;;;7.90;4.03;;;16.60;99.90;;;;;;5054691;28;20391;-27
2022/07/31 02:00:19;;;;;;;10.82;4.00;;;16.60;99.90;;;;;;5054560;28;20032;-27
2022/07/31 02:02:47;;;;;;;8.15;3.78;;;16.60;99.90;;;;;;5053139;28;20106;-28
2022/07/31 02:05:15;;;;;;;5.45;3.83;;;16.70;99.90;;;;;;5048716;28;20051;-28
2022/07/31 02:07:43;;;;;;;6.18;3.83;;;16.60;99.90;;;;;;5054448;28;20132;-27
2022/07/31 02:10:11;;;;;;;7.63;3.95;;;16.60;99.90;;;;;;5052761;28;20537;-28
2022/07/31 02:12:39;;;;;;;6.30;3.65;;;16.60;99.90;;;;;;5054330;28;20144;-27
2022/07/31 02:15:08;;;;;;;7.15;3.30;;;16.60;99.90;;;;;;5053237;28;20041;-27
2022/07/31 02:17:35;;;;;;;6.13;3.30;;;16.70;99.90;;;;;;5053661;28;20099;-27
2022/07/31 02:20:04;;;;;;;5.80;2.97;;;16.70;99.90;;;;;;5054472;28;20132;-27
2022/07/31 02:22:30;;;;;;;4.40;3.47;;;16.70;99.90;;;;;;5054146;28;20091;-27
2022/07/31 02:24:56;;;;;;;7.18;3.38;;;16.70;99.90;;;;;;5051847;28;20045;-27
2022/07/31 02:27:24;;;;;;;7.03;3.20;;;16.70;99.90;;;;;;5053769;28;20052;-27
2022/07/31 02:29:50;;;;;;;3.60;3.10;;;16.70;99.90;;;;;;5054075;28;20445;-27
2022/07/31 02:32:16;;;;;;;7.45;4.05;;;16.80;99.90;;;;;;5053968;28;20101;-27
2022/07/31 02:34:44;;;;;;;4.28;2.75;;;16.70;99.90;;;;;;5052231;28;20057;-28
2022/07/31 02:37:12;;;;;;;5.97;3.05;;;16.80;99.90;;;;;;5052801;28;20041;-28
2022/07/31 02:39:39;;;;;;;5.90;2.60;;;16.80;99.90;;;;;;5052729;28;20052;-28
2022/07/31 02:42:06;;;;;;;8.57;3.17;;;16.80;99.90;;;;;;5053884;28;20041;-27
2022/07/31 02:44:33;;;;;;;4.07;2.63;;;16.80;99.90;;;;;;5053743;28;20130;-28
2022/07/31 02:47:04;;;;;;;5.20;2.80;;;16.80;99.90;;;;;;5052927;28;20068;-28
2022/07/31 02:49:32;;;;;;;3.80;2.58;;;16.80;99.90;;;;;;5052853;28;20049;-27
2022/07/31 02:51:58;;;;;;;5.35;2.63;;;16.80;99.90;;;;;;5054533;28;20041;-27
2022/07/31 02:54:23;;;;;;;6.57;3.35;;;16.80;99.90;;;;;;5054489;28;20068;-29
2022/07/31 02:56:51;;;;;;;4.32;2.92;;;16.80;99.90;;;;;;5052649;28;20048;-28
2022/07/31 02:59:17;;;;;;;5.90;3.70;;;16.80;99.90;;;;;;5053613;28;20041;-28
2022/07/31 03:01:42;;;;;;;6.40;3.55;;;16.80;99.90;;;;;;5051934;28;20675;-28
2022/07/31 03:04:09;;;;;;;5.28;3.25;;;16.80;99.90;;;;;;5053791;28;20144;-27
2022/07/31 03:06:35;;;;;;;5.00;3.05;;;16.70;99.90;;;;;;5052922;28;20106;-27
2022/07/31 03:09:01;;;;;;;7.68;3.63;;;16.70;99.90;;;;;;5052077;28;20092;-27
2022/07/31 03:11:27;;;;;;;4.80;3.08;;;16.70;99.90;;;;;;5053836;28;20084;-27
2022/07/31 03:13:57;;;;;;;6.85;3.50;;;16.70;99.90;;;;;;5052591;28;20521;-27
2022/07/31 03:16:24;;;;;;;6.18;3.20;;;16.60;99.90;;;;;;5053783;28;20041;-27
2022/07/31 03:18:51;;;;;;;4.80;3.20;;;16.60;99.90;;;;;;5051288;28;20052;-27
2022/07/31 03:21:18;;;;;;;6.38;3.60;;;16.60;99.90;;;;;;5052430;28;20102;-27
2022/07/31 03:23:45;;;;;;;5.97;3.10;;;16.50;99.90;;;;;;5053596;28;20052;-27
2022/07/31 03:26:12;;;;;;;5.38;3.63;;;16.50;99.90;;;;;;5036421;28;20044;-27
2022/07/31 03:28:37;;;;;;;6.10;3.80;;;16.50;99.90;;;;;;5034773;28;20136;-27
2022/07/31 03:31:03;;;;;;;7.30;3.40;;;16.40;99.90;;;;;;5053361;28;20123;-27
2022/07/31 03:33:29;;;;;;;8.70;3.63;;;16.40;99.90;;;;;;5052425;28;20067;-27
2022/07/31 03:35:55;;;;;;;5.63;3.53;;;16.40;99.90;;;;;;5054606;28;20387;-27
2022/07/31 03:38:20;;;;;;;6.32;3.58;;;16.40;99.90;;;;;;5060657;28;20044;-28
2022/07/31 03:40:46;;;;;;;5.78;3.50;;;16.30;99.90;;;;;;5052105;28;20474;-27
2022/07/31 03:43:14;;;;;;;7.22;4.50;;;16.30;99.90;;;;;;5053253;28;20182;-27
2022/07/31 03:45:41;;;;;;;7.45;3.75;;;16.20;99.90;;;;;;5052220;28;20384;-27
2022/07/31 03:48:07;;;;;;;7.18;3.38;;;16.10;99.90;;;;;;5052193;28;20460;-28
2022/07/31 03:50:36;;;;;;;5.13;3.15;;;16.10;99.90;;;;;;5053116;28;20142;-27
2022/07/31 03:53:04;;;;;;;3.88;3.35;;;16.00;99.90;;;;;;5053373;28;20056;-27
2022/07/31 03:55:32;;;;;;;7.47;3.30;;;16.00;99.90;;;;;;5035591;28;20045;-27
2022/07/31 03:57:58;;;;;;;5.97;3.42;;;16.00;99.90;;;;;;5052826;28;20103;-28
2022/07/31 04:00:26;;;;;;;6.20;3.40;;;16.00;99.90;;;;;;5052587;28;20044;-27
2022/07/31 04:02:56;;;;;;;7.45;3.47;;;15.90;99.90;;;;;;5051929;28;20041;-27
2022/07/31 04:05:23;;;;;;;5.38;3.92;;;15.90;99.90;;;;;;5051821;28;20037;-27
2022/07/31 04:07:49;;;;;;;10.10;4.15;;;16.00;99.90;;;;;;5052035;28;20107;-27
2022/07/31 04:10:16;;;;;;;7.10;3.58;;;16.00;99.90;;;;;;5051967;28;20178;-28
2022/07/31 04:12:41;;;;;;;8.55;4.40;;;16.00;99.90;;;;;;5052958;28;20048;-28
2022/07/31 04:15:08;;;;;;;9.40;4.80;;;16.00;99.90;;;;;;5038177;28;20102;-28
2022/07/31 04:17:33;;;;;;;6.88;4.55;;;16.10;99.90;;;;;;5055255;28;20426;-27
2022/07/31 04:19:59;;;;;;;6.15;5.00;;;16.10;99.90;;;;;;5054033;28;20048;-27
2022/07/31 04:22:25;;;;;;;5.03;4.43;;;16.10;99.90;;;;;;5057006;28;20051;-27
2022/07/31 04:24:50;;;;;;;8.23;4.30;;;16.10;99.90;;;;;;5056301;28;20491;-28
2022/07/31 04:27:17;;;;;;;9.90;4.70;;;16.10;99.90;;;;;;5056331;28;20090;-27
2022/07/31 04:29:48;;;;;;;9.18;4.95;;;16.20;99.90;;;;;;5056586;28;20121;-27
2022/07/31 04:32:14;;;;;;;9.95;4.75;;;16.20;99.90;;;;;;5054078;28;20052;-28
2022/07/31 04:34:40;;;;;;;6.18;4.53;;;16.20;99.90;;;;;;5055897;28;20395;-27
2022/07/31 04:37:07;;;;;;;7.10;4.75;;;16.30;99.90;;;;;;5052541;28;20057;-27
2022/07/31 04:39:33;;;;;;;8.85;4.40;;;16.30;99.90;;;;;;5056157;28;20052;-27
2022/07/31 04:41:58;;;;;;;6.60;4.47;;;16.30;99.90;;;;;;5056082;28;20044;-27
2022/07/31 04:44:24;;;;;;;9.65;4.57;;;16.40;99.90;;;;;;5055945;28;20033;-27
2022/07/31 04:46:50;;;;;;;7.43;4.45;;;16.50;99.90;;;;;;5056059;28;20071;-29
2022/07/31 04:49:16;;;;;;;5.72;4.50;;;16.50;99.90;;;;;;5055249;28;20052;-27
2022/07/31 04:51:42;;;;;;;8.38;4.60;;;16.60;99.90;;;;;;5055883;28;20041;-27
2022/07/31 04:54:09;;;;;;;8.85;4.22;;;16.60;99.90;;;;;;5055803;28;20045;-27
2022/07/31 04:56:36;;;;;;;7.07;4.53;;;16.70;94.60;;;;;;5055788;28;20049;-28
2022/07/31 04:59:19;;;;;;;7.40;4.13;;;16.70;83.00;;;;;;5053751;28;20047;-27
2022/07/31 05:01:45;;;;;;;5.82;3.90;;;16.80;25.80;;;;;;5055755;28;20089;-27
2022/07/31 05:04:11;;;;;;;6.75;3.95;;;16.80;35.80;;;;;;5054360;28;20479;-28
2022/07/31 05:06:39;;;;;;;5.43;4.22;;;16.80;1.00;;;;;;5055835;28;20488;-28
2022/07/31 05:09:07;;;;;;;6.28;4.07;;;16.90;3.60;;;;;;5054311;28;20112;-27
2022/07/31 05:11:35;;;;;;;8.35;3.72;;;16.90;1.40;;;;;;5055872;28;20411;-28
2022/07/31 05:14:03;;;;;;;5.72;3.90;;;17.00;1.00;;;;;;5055759;28;20126;-27
2022/07/31 05:16:30;;;;;;;6.60;4.10;;;17.00;1.00;;;;;;5055440;28;20040;-28
2022/07/31 05:18:56;;;;;;;10.05;4.90;;;17.10;1.00;;;;;;5055404;28;20106;-27
2022/07/31 05:21:22;;;;;;;6.78;3.65;;;17.20;1.00;;;;;;5054877;28;20049;-27
2022/07/31 05:23:49;;;;;;;6.20;3.90;;;17.30;1.00;;;;;;5054256;28;20444;-28
2022/07/31 05:26:17;;;;;;;5.30;4.00;;;17.40;1.00;;;;;;5055193;28;20041;-28
2022/07/31 05:28:43;;;;;;;8.73;4.15;;;17.50;1.00;;;;;;5070919;28;20049;-27
2022/07/31 05:31:09;;;;;;;5.75;4.03;;;17.60;1.00;;;;;;5054222;28;20056;-28
2022/07/31 05:33:35;;;;;;;7.68;4.28;;;17.60;1.00;;;;;;5054536;28;20487;-28
2022/07/31 05:36:02;;;;;;;9.75;4.38;;;17.70;1.00;;;;;;5055135;28;20386;-27
2022/07/31 05:38:28;;;;;;;6.55;4.30;;;17.80;1.00;;;;;;5054980;28;20049;-27
2022/07/31 05:40:54;;;;;;;5.00;4.22;;;17.80;1.00;;;;;;5054405;28;20041;-28
2022/07/31 05:43:20;;;;;;;7.32;4.20;;;17.90;1.00;;;;;;5054898;28;20045;-29
2022/07/31 05:45:46;;;;;;;4.43;4.03;;;17.90;1.00;;;;;;5054793;28;20124;-28
2022/07/31 05:48:16;;;;;;;6.63;4.78;;;17.90;1.00;;;;;;5053663;28;20064;-28
2022/07/31 05:50:46;;;;;;;6.30;4.20;;;18.10;1.00;;;;;;5054672;28;20041;-28
2022/07/31 05:53:14;;;;;;;4.25;3.72;;;18.20;1.00;;;;;;5052694;28;20049;-28
2022/07/31 05:55:48;;;;;;;8.35;4.10;;;18.20;1.00;;;;;;5053965;28;20470;-27
2022/07/31 05:58:14;;;;;;;5.97;3.70;;;18.30;1.00;;;;;;5053452;28;20067;-28
2022/07/31 06:00:41;;;;;;;6.18;3.72;;;18.40;1.00;;;;;;5055138;28;20124;-27
2022/07/31 06:03:07;;;;;;;7.97;4.50;;;18.50;99.90;;;;;;5053403;28;20045;-28
2022/07/31 06:05:32;;;;;;;10.23;3.95;;;18.60;99.90;;;;;;5053444;28;20051;-27
2022/07/31 06:07:59;;;;;;;6.05;3.70;;;18.60;99.90;;;;;;5054047;28;20045;-28
2022/07/31 06:10:26;;;;;;;5.22;3.80;;;18.70;99.90;;;;;;5053244;28;20049;-27
2022/07/31 06:12:52;;;;;;;6.10;4.25;;;18.80;99.90;;;;;;5052044;28;20041;-28
2022/07/31 06:15:18;;;;;;;6.10;3.97;;;18.90;99.90;;;;;;5053608;28;20116;-27
2022/07/31 06:17:44;;;;;;;5.72;4.00;;;18.90;99.90;;;;;;5053074;28;20084;-27
2022/07/31 06:20:10;;;;;;;8.73;4.00;;;19.00;99.90;;;;;;5054253;28;20056;-28
2022/07/31 06:22:38;;;;;;;9.52;3.97;;;19.10;99.90;;;;;;5052118;28;20120;-27
2022/07/31 06:25:05;;;;;;;5.93;3.67;;;19.20;99.90;;;;;;5053310;28;20102;-28
2022/07/31 06:27:31;;;;;;;7.20;3.90;;;19.30;99.90;;;;;;5036460;28;20190;-27
2022/07/31 06:29:57;;;;;;;6.90;4.38;;;19.30;99.90;;;;;;5053757;28;20110;-28
2022/07/31 06:32:23;;;;;;;6.53;3.50;;;19.40;99.90;;;;;;5054312;28;20135;-28
2022/07/31 06:34:49;;;;;;;9.20;4.78;;;19.50;99.90;;;;;;5051419;28;20047;-28
2022/07/31 06:37:14;;;;;;;4.43;3.88;;;19.60;98.10;;;;;;5053510;28;20063;-28
2022/07/31 06:39:40;;;;;;;8.48;3.88;;;19.70;99.90;;;;;;5053910;28;20537;-27
2022/07/31 06:42:06;;;;;;;6.70;3.70;;;19.70;11.20;;;;;;5053224;28;20052;-28
2022/07/31 06:44:33;;;;;;;5.80;3.67;;;19.70;11.10;;;;;;5052754;28;20048;-28
2022/07/31 06:46:59;;;;;;;6.05;3.92;;;19.80;1.00;;;;;;5052575;28;20060;-27
2022/07/31 06:49:24;;;;;;;5.18;3.63;;;19.80;1.00;;;;;;5053771;28;20045;-27
2022/07/31 06:51:51;;;;;;;6.43;4.18;;;19.80;1.00;;;;;;5052557;28;20124;-28
2022/07/31 06:54:17;;;;;;;6.55;3.85;;;19.90;1.00;;;;;;5035030;28;20156;-28
2022/07/31 06:56:43;;;;;;;5.65;4.00;;;20.00;1.00;;;;;;5040038;28;20470;-28
2022/07/31 06:59:09;;;;;;;5.68;3.90;;;20.10;1.00;;;;;;5033736;28;20053;-27
2022/07/31 07:01:35;;;;;;;7.15;4.05;;;20.10;1.00;;;;;;5034498;28;20037;-28
2022/07/31 07:04:01;;;;;;;5.70;4.15;;;20.10;1.00;;;;;;5034160;28;20380;-27
2022/07/31 07:06:27;;;;;;;5.47;3.92;;;20.20;1.00;;;;;;5045832;28;20137;-28
2022/07/31 07:08:54;;;;;;;5.90;3.85;;;20.20;1.00;;;;;;5047253;28;20128;-28
2022/07/31 07:11:20;;;;;;;5.22;4.10;;;20.10;1.00;;;;;;5031913;28;20088;-28
2022/07/31 07:13:46;;;;;;;8.05;4.50;;;20.20;1.00;;;;;;5034193;28;20081;-27
2022/07/31 07:16:13;;;;;;;8.93;4.57;;;20.20;5.40;;;;;;5034364;28;20399;-28
2022/07/31 07:18:39;;;;;;;4.93;4.07;;;20.30;99.90;;;;;;5045867;28;20490;-28
2022/07/31 07:21:05;;;;;;;7.25;4.80;;;20.30;99.90;;;;;;5053455;28;20036;-28
2022/07/31 07:23:32;;;;;;;5.22;4.05;;;20.40;99.90;;;;;;5053101;28;20119;-28
2022/07/31 07:25:57;;;;;;;6.45;4.32;;;20.40;98.10;;;;;;5053705;28;20125;-28
2022/07/31 07:28:23;;;;;;;7.47;5.00;;;20.50;27.40;;;;;;5043451;28;20503;-28
2022/07/31 07:30:49;;;;;;;6.20;4.45;;;20.50;54.10;;;;;;5038311;28;20056;-28
2022/07/31 07:33:15;;;;;;;5.25;4.43;;;20.50;1.00;;;;;;5055650;28;20037;-27
2022/07/31 07:35:40;;;;;;;8.95;4.60;;;20.50;1.00;;;;;;5052270;28;20045;-28
2022/07/31 07:38:06;;;;;;;9.23;5.00;;;20.50;1.00;;;;;;5053548;28;20052;-29
2022/07/31 07:40:32;;;;;;;7.93;4.90;;;20.50;1.00;;;;;;5053645;28;20107;-28
2022/07/31 07:42:58;;;;;;;8.63;4.43;;;20.40;1.00;;;;;;5053501;28;20049;-28
2022/07/31 07:45:24;;;;;;;7.90;5.22;;;20.40;1.00;;;;;;5052870;28;20552;-30
2022/07/31 07:47:49;;;;;;;6.05;4.80;;;20.40;1.00;;;;;;5053259;28;20107;-28
2022/07/31 07:50:15;;;;;;;6.80;4.65;;;20.50;1.00;;;;;;5056539;28;20037;-28
2022/07/31 07:52:41;;;;;;;8.52;5.03;;;20.60;1.00;;;;;;5056345;28;20047;-28
2022/07/31 07:55:07;;;;;;;6.50;5.78;;;20.70;1.00;;;;;;5057002;28;20075;-29
2022/07/31 07:57:35;;;;;;;7.85;4.97;;;20.70;1.00;;;;;;5057199;28;20402;-28
2022/07/31 08:00:04;;;;;;;7.35;5.13;;;20.80;1.00;;;;;;5056940;28;20131;-30
2022/07/31 08:02:30;;;;;;;9.93;6.20;;;20.80;1.00;;;;;;5056850;28;20080;-29
2022/07/31 08:04:56;;;;;;;11.05;6.43;;;20.90;1.00;;;;;;5055658;28;20087;-28
2022/07/31 08:07:28;;;;;;;10.10;5.65;;;21.00;1.00;;;;;;5056712;28;20479;-31
2022/07/31 08:09:57;;;;;;;7.57;6.30;;;20.90;1.00;;;;;;5035587;28;20058;-28
2022/07/31 08:12:23;;;;;;;10.05;6.00;;;20.80;1.00;;;;;;5036727;28;20088;-28
2022/07/31 08:14:49;;;;;;;9.15;6.50;;;20.80;1.00;;;;;;5036683;28;20073;-28
2022/07/31 08:17:15;;;;;;;11.20;6.07;;;20.70;1.00;;;;;;5035543;28;20080;-28
2022/07/31 08:19:40;;;;;;;10.60;7.13;;;20.80;1.00;;;;;;5036894;28;20079;-28
2022/07/31 08:22:07;;;;;;;8.18;6.53;;;20.70;31.60;;;;;;5052034;28;20471;-28
2022/07/31 08:24:32;;;;;;;8.65;5.93;;;20.70;17.40;;;;;;5037317;28;20041;-28
2022/07/31 08:29:44;;;;;;;12.23;7.18;;;20.80;94.20;;;;;;5056373;28;20102;-30
2022/07/31 08:32:10;;;;;;;11.73;7.43;;;20.80;99.90;;;;;;5055985;28;20495;-28
2022/07/31 08:34:36;;;;;;;7.97;6.93;;;20.80;99.90;;;;;;5054347;28;20593;-29
2022/07/31 08:37:05;;;;;;;12.20;7.22;;;20.80;99.90;;;;;;5038505;28;20080;-28
2022/07/31 08:39:35;;;;;;;9.43;7.60;;;20.80;99.90;;;;;;5055424;28;20041;-28
2022/07/31 08:42:05;;;;;;;11.55;7.97;;;20.80;99.90;;;;;;5055785;28;20514;-29
2022/07/31 08:44:30;;;;;;;12.30;8.02;;;20.70;99.90;;;;;;5055631;28;20045;-29
2022/07/31 08:46:57;;;;;;;13.95;7.93;;;20.60;99.90;;;;;;5056292;28;20423;-28
2022/07/31 08:49:29;;;;;;;15.15;7.70;;;20.50;1.00;;;;;;5038391;28;20057;-28
2022/07/31 08:51:56;;;;;;;13.33;9.07;;;20.50;1.00;;;;;;5042508;28;20143;-28
2022/07/31 08:54:25;;;;;;;13.00;10.43;;;20.40;1.00;;;;;;5061198;28;20047;-28
2022/07/31 08:56:51;;;;;;;14.75;10.52;;;20.40;34.60;;;;;;5055772;28;20155;-28
2022/07/31 08:59:18;;;;;;;13.45;9.35;;;20.20;99.90;;;;;;5054353;28;20056;-28
2022/07/31 09:01:44;;;;;;;19.95;13.13;;;20.10;99.90;;;;;;5055568;28;20052;-28
2022/07/31 09:04:11;;;;;;;13.50;10.55;;;19.90;99.90;;;;;;5055281;28;20391;-29
2022/07/31 09:06:37;;;;;;;18.75;14.45;;;19.70;1.00;;;;;;5055641;28;20143;-28
2022/07/31 09:09:03;;;;;;;21.58;13.15;;;19.60;15.90;;;;;;5055237;28;20127;-26
2022/07/31 09:11:30;;;;;;;17.42;14.68;;;19.50;99.90;;;;;;5055046;28;20057;-25
2022/07/31 09:14:00;;;;;;;22.48;15.07;;;19.40;99.90;;;;;;5055251;28;20425;-24
2022/07/31 09:16:26;;;;;;;17.17;13.60;;;19.30;1.00;;;;;;5054836;28;20060;-23
2022/07/31 09:18:57;;;;;;;23.00;18.38;;;19.20;1.00;;;;;;5055480;28;20390;-23
2022/07/31 09:21:22;;;;;;;26.48;18.63;;;19.10;99.90;;;;;;5055362;28;20056;-22
2022/07/31 09:23:48;;;;;;;22.85;15.43;;;19.10;99.90;;;;;;5054342;28;20045;-22
2022/07/31 09:26:14;;;;;;;26.25;17.40;;;19.10;99.90;;;;;;5055300;28;20084;-22
2022/07/31 09:28:43;;;;;;;21.45;16.88;;;19.10;99.90;;;;;;5053963;28;20048;-22
2022/07/31 09:31:10;;;;;;;22.65;17.42;;;19.10;99.90;;;;;;5055096;28;20044;-22
2022/07/31 09:33:38;;;;;;;20.05;15.27;;;19.20;99.90;;;;;;5054306;28;20049;-22
2022/07/31 09:36:04;;;;;;;25.30;19.48;;;19.20;99.90;;;;;;5070593;28;20053;-23
2022/07/31 09:38:38;;;;;;;30.45;18.88;;;19.20;1.00;;;;;;5054097;28;20041;-23
2022/07/31 09:41:18;;;;;;;19.23;14.77;;;19.30;1.00;;;;;;5037772;28;20048;-24
2022/07/31 09:44:01;;;;;;;28.05;19.70;;;19.20;1.00;;;;;;5053768;28;20110;-23
2022/07/31 09:46:44;;;;;;;20.85;18.30;;;19.20;1.00;;;;;;5054831;28;20037;-23
2022/07/31 09:49:11;;;;;;;26.75;18.52;;;19.10;1.00;;;;;;5071390;28;20100;-23
2022/07/31 09:51:41;;;;;;;26.10;19.80;;;19.00;1.00;;;;;;5052896;28;20100;-23
2022/07/31 09:54:18;;;;;;;28.52;20.73;;;19.00;1.00;;;;;;5054781;28;20080;-23
2022/07/31 09:56:45;;;;;;;23.85;17.67;;;19.00;2.00;;;;;;5069089;28;20049;-23
2022/07/31 09:59:11;;;;;;;30.50;21.50;;;19.00;5.60;;;;;;5057290;28;20052;-23
2022/07/31 10:01:39;;;;;;;28.85;21.73;;;19.00;30.10;;;;;;5054884;28;20060;-23
2022/07/31 10:04:06;;;;;;;30.80;20.92;;;19.00;98.50;;;;;;5053858;28;20037;-24
2022/07/31 10:06:34;;;;;;;35.78;23.17;;;19.00;98.80;;;;;;5052974;28;20488;-25
2022/07/31 10:09:02;;;;;;;25.02;19.27;;;19.10;99.90;;;;;;5060785;28;20053;-25
2022/07/31 10:11:30;;;;;;;25.00;18.27;;;19.10;99.90;;;;;;5037886;28;20045;-25
2022/07/31 10:13:59;;;;;;;24.55;20.50;;;19.10;99.90;;;;;;5043462;28;20438;-26
2022/07/31 10:16:28;;;;;;;26.23;19.80;;;19.20;99.90;;;;;;5046963;28;20049;-26
2022/07/31 10:18:59;;;;;;;26.67;19.58;;;19.20;99.90;;;;;;5051220;28;20045;-26
2022/07/31 10:21:34;;;;;;;30.52;21.13;;;19.30;99.90;;;;;;5054844;28;20431;-25
2022/07/31 10:24:02;;;;;;;28.60;22.40;;;19.20;99.90;;;;;;5051631;28;20041;-25
2022/07/31 10:26:29;;;;;;;33.13;23.50;;;19.10;99.90;;;;;;5053180;28;20052;-27
2022/07/31 10:28:57;;;;;;;27.13;19.63;;;19.00;99.90;;;;;;5052882;28;20052;-29
2022/07/31 10:31:23;;;;;;;33.33;24.50;;;18.90;99.90;;;;;;5053059;28;20056;-27
2022/07/31 10:33:49;;;;;;;34.50;24.98;;;18.90;99.90;;;;;;5054837;28;20102;-28
2022/07/31 10:36:20;;;;;;;29.50;23.95;;;18.80;99.90;;;;;;5053997;28;20048;-27
2022/07/31 10:38:59;;;;;;;38.60;25.48;;;18.80;99.90;;;;;;5053145;28;20063;-29
2022/07/31 10:41:49;;;;;;;36.15;25.00;;;18.80;99.90;;;;;;5053190;28;20049;-29
2022/07/31 10:44:23;;;;;;;40.58;28.73;;;18.80;99.90;;;;;;5054363;28;20102;-31
2022/07/31 10:46:49;;;;;;;41.08;28.00;;;18.80;99.90;;;;;;5052949;28;20131;-30
2022/07/31 10:49:15;;;;;;;32.92;26.98;;;18.80;99.90;;;;;;5054876;28;20175;-31
2022/07/31 10:51:49;;;;;;;45.80;30.27;;;18.80;99.90;;;;;;5053654;28;20119;-30
2022/07/31 10:54:15;;;;;;;42.30;28.83;;;18.90;99.90;;;;;;5036087;28;20057;-31
2022/07/31 10:56:45;;;;;;;38.17;28.33;;;18.80;99.90;;;;;;5053591;28;20045;-30
2022/07/31 10:59:11;;;;;;;40.30;29.80;;;18.60;99.90;;;;;;5052989;28;20080;-32
2022/07/31 11:01:50;;;;;;;35.17;27.35;;;18.70;99.90;;;;;;5053664;28;20086;-30
2022/07/31 11:04:31;;;;;;;26.25;22.92;;;18.80;99.90;;;;;;5069282;28;20055;-32
2022/07/31 11:06:58;;;;;;;24.63;19.75;;;18.70;99.90;;;;;;5053551;28;20040;-32
2022/07/31 11:09:27;;;;;;;21.15;16.75;;;18.70;99.90;;;;;;5053437;28;20068;-32
2022/07/31 11:11:54;;;;;;;19.77;17.42;;;18.80;99.90;;;;;;5053567;28;20049;-32
2022/07/31 11:14:39;;;;;;;26.77;22.08;;;18.70;99.90;;;;;;5053598;28;20048;-32
2022/07/31 11:17:05;;;;;;;27.92;24.15;;;18.80;99.90;;;;;;5033491;28;20100;-33
2022/07/31 11:19:41;;;;;;;31.52;25.33;;;18.80;99.90;;;;;;5032064;28;20518;-32
2022/07/31 11:22:12;;;;;;;32.97;24.58;;;18.90;99.90;;;;;;5034108;28;20184;-33
2022/07/31 11:24:38;;;;;;;32.67;24.15;;;18.90;99.90;;;;;;5037439;28;20052;-34
2022/07/31 11:27:04;;;;;;;35.33;27.60;;;18.80;99.90;;;;;;5036649;28;20422;-33
2022/07/31 11:29:35;;;;;;;32.17;25.48;;;18.60;99.90;;;;;;5020844;28;20050;-34
2022/07/31 11:32:03;;;;;;;40.15;27.02;;;18.70;99.90;;;;;;5041598;28;20040;-34
2022/07/31 11:34:30;;;;;;;44.28;29.67;;;18.70;99.90;;;;;;5057381;28;20041;-35
2022/07/31 11:36:56;;;;;;;35.72;28.00;;;18.70;99.90;;;;;;5057350;28;20049;-35
2022/07/31 11:39:25;;;;;;;37.88;26.60;;;18.70;99.90;;;;;;5057355;28;20119;-33
2022/07/31 11:41:51;;;;;;;37.58;26.98;;;18.80;99.90;;;;;;5057209;28;20044;-33
2022/07/31 11:44:20;;;;;;;34.92;28.05;;;18.60;99.90;;;;;;5057048;28;20056;-35
2022/07/31 11:46:48;;;;;;;30.20;24.80;;;18.60;99.90;;;;;;5057151;28;20049;-34
2022/07/31 11:49:21;;;;;;;35.15;25.58;;;18.70;99.90;;;;;;5056434;28;20406;-33
2022/07/31 11:51:47;;;;;;;42.33;27.27;;;18.50;99.90;;;;;;5073656;28;20057;-33
2022/07/31 11:54:22;;;;;;;37.75;28.13;;;18.70;99.90;;;;;;5057586;28;20124;-33
2022/07/31 11:56:54;;;;;;;30.23;22.63;;;18.50;99.90;;;;;;5072990;28;20044;-33
2022/07/31 11:59:29;;;;;;;42.88;29.48;;;18.50;99.90;;;;;;5057045;28;20044;-33
2022/07/31 12:02:07;;;;;;;38.08;28.48;;;18.50;99.90;;;;;;5056881;28;20398;-34
2022/07/31 12:04:37;;;;;;;39.45;29.15;;;18.60;99.90;;;;;;5056812;28;20052;-34
2022/07/31 12:07:04;;;;;;;37.25;27.58;;;18.30;99.90;;;;;;5056266;28;20129;-34
2022/07/31 12:09:32;;;;;;;43.55;31.05;;;18.50;99.90;;;;;;5055364;28;20093;-33
2022/07/31 12:11:59;;;;;;;48.67;31.90;;;18.30;99.90;;;;;;5056710;28;20084;-33
2022/07/31 12:14:35;;;;;;;47.00;29.40;;;18.40;99.90;;;;;;5056637;28;20037;-34
2022/07/31 12:17:03;;;;;;;45.13;29.77;;;18.20;99.90;;;;;;5057452;28;20047;-34
2022/07/31 12:19:33;;;;;;;44.22;30.80;;;18.20;99.90;;;;;;5055388;28;20102;-34
2022/07/31 12:21:59;;;;;;;53.33;32.72;;;18.20;99.90;;;;;;5057109;28;20124;-34
2022/07/31 12:24:28;;;;;;;43.95;29.15;;;18.10;99.90;;;;;;5055717;28;20045;-35
2022/07/31 12:26:58;;;;;;;50.90;32.50;;;18.40;99.90;;;;;;5056381;28;20076;-39
2022/07/31 12:29:50;;;;;;;51.50;30.20;;;18.40;99.90;;;;;;5051121;28;20045;-35
2022/07/31 12:32:26;;;;;;;42.28;27.98;;;18.50;99.90;;;;;;5054046;28;20530;-33
2022/07/31 12:35:03;;;;;;;32.47;22.02;;;18.40;99.90;;;;;;5055819;28;20438;-33
2022/07/31 12:37:29;;;;;;;24.10;18.80;;;18.60;99.90;;;;;;5055045;28;20059;-33
2022/07/31 12:39:56;;;;;;;31.75;20.65;;;18.40;99.90;;;;;;5055141;28;20041;-33
2022/07/31 12:42:24;;;;;;;23.85;19.40;;;18.30;99.90;;;;;;5055264;28;20057;-34
2022/07/31 12:44:52;;;;;;;31.95;23.45;;;18.30;99.90;;;;;;5056005;28;20045;-33
2022/07/31 12:47:26;;;;;;;29.00;21.10;;;18.70;99.90;;;;;;5056282;28;20506;-33
2022/07/31 12:49:52;;;;;;;23.35;17.95;;;18.80;99.90;;;;;;5054347;28;20128;-35